Terminal Aerodrome Forecast
Issued by NWS Amarillo, TX

Home | Current Version | Previous Version | Text Only | Print | Product List | Glossary On
Versions: 1 2 3 4 5 6 7 8 9 10 11 12 13 14 15 16 17
000
FTUS44 KAMA 012300
TAFGUY
TAF
KGUY 012320Z 0200/0224 25015G25KT P6SM SCT100 BKN200
     FM020400 36012KT P6SM SCT200
     FM021400 05010KT P6SM SCT100 BKN200
     FM021900 19014KT P6SM SCT100 BKN200=

USA.gov is the U.S. government's official web portal to all federal, state and local government web resources and services.